Flight Track Log - Related Links

Times and Time Zones

All times are in EDT time to prevent confusion due to time zone crossing. See the LYM1725 flight status page for this flight to view local times or setup timezone preferences in your user account.

Time Position Orientation Groundspeed Altitude Reporting Facility
EDT Latitude Longitude Course Direction KTS MPH feet Rate Location/Type
Wed 08:37:20 AM 39.8333 -104.7333 320° Northwest 195 224 8,000  Level Denver TRACON
Wed 08:38:14 AM 39.8667 -104.8000 303° West 211 243 9,300 1,604 Climbing Denver TRACON
Wed 08:39:01 AM 39.8856 -104.8503 296° West 204 235 10,700 1,722 Climbing Denver Center
Wed 08:40:02 AM 39.9128 -104.9172 298° West 207 238 12,400 1,426 Climbing Denver Center
Wed 08:41:03 AM 39.9478 -104.9711 310° West 209 241 13,600 1,279 Climbing Denver Center
Wed 08:42:00 AM 40.3798 -105.2517 320° Northwest  Level Estimated
Wed 08:42:04 AM 40.0042 -104.9639 North 202 232 15,000  Level Denver Center
Wed 08:43:05 AM 40.0594 -104.9550 North 200 230 16,500 1,328 Climbing Denver Center
Wed 08:44:06 AM 40.1194 -104.9406 10° North 203 234 17,700 1,180 Climbing Denver Center
Wed 08:45:07 AM 40.1764 -104.9286 North 207 238 18,900 1,082 Climbing Denver Center
Wed 08:46:08 AM 40.2347 -104.9219 North 211 243 19,900 541 Climbing Denver Center
Wed 08:47:09 AM 40.2989 -104.9131 North 233 268 20,000 49 Climbing Denver Center
Wed 08:48:10 AM 40.3725 -104.9047 North 263 303 20,000  Level Denver Center
Wed 08:49:12 AM 40.4531 -104.9183 353° North 274 315 20,000  Level Denver Center
Wed 08:50:13 AM 40.5264 -104.9511 341° North 279 321 20,000  Level Denver Center
Wed 08:51:14 AM 40.5994 -104.9844 341° North 280 322 20,000  Level Denver Center
Wed 08:52:15 AM 40.6728 -105.0156 342° North 280 322 20,000  Level Denver Center
Wed 08:53:16 AM 40.7447 -105.0433 344° North 282 325 20,000  Level Denver Center
Wed 08:54:29 AM 40.8319 -105.1036 332° Northwest 271 312 20,000  Level Denver Center
Wed 08:55:30 AM 40.8836 -105.1856 310° West 282 325 20,000  Level Denver Center
Wed 08:56:31 AM 40.9378 -105.2603 314° West 281 323 20,000  Level Denver Center
Wed 08:57:32 AM 40.9981 -105.3272 320° Northwest 281 323 20,000  Level Denver Center
Wed 08:58:33 AM 41.0514 -105.3883 319° Northwest 283 326 20,000  Level Denver Center
Wed 08:59:35 AM 41.1219 -105.4578 323° Northwest 283 326 20,000 49 Level Denver Center
Wed 09:00:36 AM 41.1803 -105.5147 324° Northwest 276 318 20,100  Climbing Denver Center
Wed 09:01:37 AM 41.2514 -105.5842 324° Northwest 282 325 20,000 -49 Descending Denver Center
Wed 09:02:38 AM 41.3131 -105.6419 325° Northwest 283 326 20,000 49 Level Denver Center
Wed 09:03:39 AM 41.3739 -105.7000 324° Northwest 281 323 20,100  Climbing Denver Center
Wed 09:04:40 AM 41.4472 -105.7658 326° Northwest 283 326 20,000 -90 Descending Denver Center
Wed 09:05:53 AM 41.5178 -105.8350 324° Northwest 281 323 19,900  Descending Denver Center
Wed 09:06:54 AM 41.5853 -105.9144 319° Northwest 287 330 20,000 49 Climbing Denver Center
Wed 09:07:55 AM 41.6450 -105.9761 322° Northwest 286 329 20,000  Level Denver Center
Wed 09:08:56 AM 41.7061 -106.0336 325° Northwest 283 326 20,000  Level Denver Center
Wed 09:09:57 AM 41.7794 -106.0994 326° Northwest 284 327 20,000 49 Level Denver Center
Wed 09:10:58 AM 41.8411 -106.1561 326° Northwest 282 325 20,100  Climbing Denver Center
Wed 09:11:59 AM 41.9031 -106.2156 324° Northwest 284 327 20,000 -49 Descending Denver Center
Wed 09:13:00 AM 41.9731 -106.2850 324° Northwest 281 323 20,000 49 Level Denver Center
Wed 09:14:01 AM 42.0339 -106.3456 324° Northwest 282 325 20,100  Climbing Denver Center
Wed 09:15:02 AM 42.1044 -106.4169 323° Northwest 283 326 20,000 -49 Descending Denver Center
Wed 09:16:03 AM 42.1656 -106.4775 324° Northwest 283 326 20,000 49 Level Denver Center
Wed 09:17:04 AM 42.2272 -106.5389 324° Northwest 287 330 20,100  Climbing Denver Center
Wed 09:18:05 AM 42.2986 -106.6069 325° Northwest 283 326 20,000 -49 Descending Denver Center
Wed 09:19:06 AM 42.3600 -106.6689 323° Northwest 284 327 20,000  Level Denver Center
Wed 09:20:07 AM 42.4239 -106.7275 326° Northwest 289 333 20,000  Level Denver Center
Wed 09:21:08 AM 42.4944 -106.7969 324° Northwest 282 325 20,000  Level Denver Center
Wed 09:22:09 AM 42.5561 -106.8589 324° Northwest 285 328 20,000  Level Denver Center
Wed 09:23:10 AM 42.6250 -106.9256 325° Northwest 285 328 20,000  Level Denver Center
Wed 09:24:11 AM 42.6878 -106.9906 323° Northwest 282 325 20,000  Level Denver Center
Wed 09:25:12 AM 42.7486 -107.0497 324° Northwest 280 322 20,000  Level Denver Center
Wed 09:26:13 AM 42.8081 -107.1117 323° Northwest 281 323 20,000  Level Denver Center
Wed 09:26:41 AM 42.8461 -107.1500 324° Northwest 280 322 20,000  Level Salt Lake Center
Wed 09:27:14 AM 42.8786 -107.1819 324° Northwest 281 323 20,000  Level Denver Center
Wed 09:28:15 AM 42.9375 -107.2378 325° Northwest 281 323 20,000  Level Denver Center
Wed 09:29:16 AM 43.0094 -107.3039 326° Northwest 280 322 20,000  Level Denver Center
Wed 09:30:17 AM 43.0694 -107.3650 323° Northwest 280 322 20,000 49 Level Denver Center
Wed 09:31:18 AM 43.1289 -107.4256 323° Northwest 279 321 20,100  Climbing Denver Center
Wed 09:31:47 AM 43.1575 -107.4569 321° Northwest 278 320 20,000 -67 Descending Salt Lake Center
Wed 09:32:48 AM 43.2264 -107.5283 323° Northwest 279 321 20,000  Level Salt Lake Center
Wed 09:33:49 AM 43.2875 -107.5847 326° Northwest 277 319 20,000  Level Salt Lake Center
Wed 09:34:50 AM 43.3469 -107.6439 324° Northwest 275 316 20,000 49 Level Salt Lake Center
Wed 09:35:51 AM 43.4164 -107.7153 323° Northwest 278 320 20,100  Climbing Salt Lake Center
Wed 09:36:52 AM 43.4756 -107.7753 324° Northwest 276 318 20,000 -49 Descending Salt Lake Center
Wed 09:37:53 AM 43.5461 -107.8464 324° Northwest 280 322 20,000  Level Salt Lake Center
Wed 09:38:54 AM 43.6044 -107.9083 322° Northwest 278 320 20,000  Level Salt Lake Center
Wed 09:39:56 AM 43.6644 -107.9694 324° Northwest 280 322 20,000  Level Salt Lake Center
Wed 09:40:57 AM 43.7339 -108.0422 323° Northwest 280 322 20,000  Level Salt Lake Center
Wed 09:41:58 AM 43.7936 -108.1081 321° Northwest 284 327 20,000  Level Salt Lake Center
Wed 09:42:59 AM 43.8536 -108.1719 322° Northwest 284 327 20,000  Level Salt Lake Center
Wed 09:44:00 AM 43.9256 -108.2433 324° Northwest 284 327 20,000 -244 Level Salt Lake Center
Wed 09:45:02 AM 43.9875 -108.3061 324° Northwest 285 328 19,500 -1,024 Descending Salt Lake Center
Wed 09:46:03 AM 44.0608 -108.3889 321° Northwest 293 337 17,900 -1,475 Descending Salt Lake Center
Wed 09:47:04 AM 44.1244 -108.4656 319° Northwest 303 349 16,500 -1,328 Descending Salt Lake Center
Wed 09:48:05 AM 44.1914 -108.5367 323° Northwest 310 357 15,200 -1,415 Descending Salt Lake Center
Wed 09:49:07 AM 44.2669 -108.6108 325° Northwest 306 352 13,600 -1,659 Descending Salt Lake Center
Wed 09:50:08 AM 44.3303 -108.6736 325° Northwest 298 343 11,800 -1,770 Descending Salt Lake Center

Login

Don't have an account? Register now (free) for customized features, flight alerts, and more!